createdAt,value
2018-12-01T00:00:24.182Z,9.40
2018-12-01T00:05:21.690Z,9.20
2018-12-01T00:10:19.145Z,9.73
2018-12-01T00:15:18.716Z,10.77
2018-12-01T00:20:19.037Z,9.23
2018-12-01T00:25:16.429Z,9.57
2018-12-01T00:30:16.811Z,9.47
2018-12-01T00:35:14.269Z,9.70
2018-12-01T00:40:14.782Z,9.40
2018-12-01T00:45:13.269Z,11.57
2018-12-01T00:50:15.725Z,11.27
2018-12-01T00:55:14.133Z,9.93
2018-12-01T01:00:23.925Z,11.80
2018-12-01T01:05:23.155Z,11.03
2018-12-01T01:10:21.527Z,10.53
2018-12-01T01:15:18.948Z,10.00
2018-12-01T01:20:21.368Z,11.10
2018-12-01T01:25:18.781Z,11.10
2018-12-01T01:30:18.385Z,11.37
2018-12-01T01:35:15.883Z,11.37
2018-12-01T01:40:15.061Z,11.17
2018-12-01T01:45:14.493Z,10.60
2018-12-01T01:50:14.095Z,11.87
2018-12-01T01:55:11.809Z,11.70
2018-12-01T02:00:18.916Z,11.37
2018-12-01T02:05:17.193Z,11.80
2018-12-01T02:10:15.553Z,12.50
2018-12-01T02:15:13.577Z,12.70
2018-12-01T02:20:13.925Z,12.60
2018-12-01T02:25:13.138Z,10.90
2018-12-01T02:30:15.217Z,11.93
2018-12-01T02:35:15.893Z,11.13
2018-12-01T02:40:13.510Z,12.30
2018-12-01T02:45:22.377Z,11.70
2018-12-01T02:50:22.770Z,13.30
2018-12-01T02:55:20.138Z,11.60
2018-12-01T03:00:17.578Z,12.47
2018-12-01T03:05:15.030Z,13.33
2018-12-01T03:10:14.289Z,12.90
2018-12-01T03:15:12.620Z,13.20
2018-12-01T03:20:13.298Z,15.50
2018-12-01T03:25:18.165Z,12.20
2018-12-01T03:30:19.431Z,14.10
2018-12-01T03:35:17.217Z,13.83
2018-12-01T03:40:15.203Z,13.10
2018-12-01T03:45:13.782Z,13.50
2018-12-01T03:50:12.260Z,14.73
2018-12-01T03:55:21.050Z,13.23
2018-12-01T04:00:24.056Z,13.40
2018-12-01T04:05:21.492Z,13.70
2018-12-01T04:10:18.910Z,13.73
2018-12-01T04:15:16.356Z,13.60
2018-12-01T04:20:13.777Z,11.77
2018-12-01T04:25:11.177Z,12.43
2018-12-01T04:30:14.648Z,11.93
2018-12-01T04:35:17.994Z,12.80
2018-12-01T04:40:15.469Z,11.27
2018-12-01T04:45:12.917Z,11.70
2018-12-01T04:50:11.662Z,11.20
2018-12-01T04:55:12.110Z,11.43
2018-12-01T05:00:12.327Z,10.87
2018-12-01T05:05:14.952Z,12.10
2018-12-01T05:10:14.200Z,12.97
2018-12-01T05:15:18.888Z,12.77
2018-12-01T05:20:18.340Z,11.80
2018-12-01T05:25:15.768Z,11.37
2018-12-01T05:30:14.400Z,12.70
2018-12-01T05:35:19.630Z,12.60
2018-12-01T05:40:17.071Z,10.33
2018-12-01T05:45:15.742Z,11.30
2018-12-01T05:50:15.097Z,10.50
2018-12-01T05:55:12.561Z,11.27
2018-12-01T06:00:14.176Z,10.80
2018-12-01T06:05:11.822Z,10.13
2018-12-01T06:10:17.383Z,13.90
2018-12-01T06:15:15.630Z,12.27
2018-12-01T06:20:14.467Z,14.67
2018-12-01T06:25:13.129Z,11.83
2018-12-01T06:30:16.628Z,12.23
2018-12-01T06:35:14.148Z,12.17
2018-12-01T06:40:13.649Z,11.63
2018-12-01T06:45:12.036Z,11.43
2018-12-01T06:50:11.661Z,10.17
2018-12-01T06:55:10.298Z,9.67
2018-12-01T07:00:13.302Z,11.97
2018-12-01T07:05:11.714Z,9.70
2018-12-01T07:10:11.610Z,9.23
2018-12-01T07:15:12.043Z,10.13
2018-12-01T07:20:09.773Z,10.27
2018-12-01T07:25:07.567Z,8.30
2018-12-01T07:30:11.401Z,8.70
2018-12-01T07:35:10.220Z,8.70
2018-12-01T07:40:13.045Z,8.43
2018-12-01T07:45:11.767Z,7.70
2018-12-01T07:50:13.333Z,6.90
2018-12-01T07:55:10.779Z,7.20
2018-12-01T08:00:12.040Z,8.50
2018-12-01T08:05:10.391Z,7.50
2018-12-01T08:10:09.612Z,7.77
2018-12-01T08:15:09.164Z,6.30
2018-12-01T08:20:08.507Z,7.10
2018-12-01T08:25:08.326Z,6.83
2018-12-01T08:30:15.727Z,7.67
2018-12-01T08:35:13.211Z,6.70
2018-12-01T08:40:12.151Z,5.77
2018-12-01T08:45:10.342Z,5.87
2018-12-01T08:50:10.051Z,5.50
2018-12-01T08:55:09.174Z,7.70
2018-12-01T09:00:16.531Z,5.40
2018-12-01T09:05:14.036Z,6.40
2018-12-01T09:10:11.505Z,6.97
2018-12-01T09:15:10.770Z,6.13
2018-12-01T09:20:11.212Z,6.33
2018-12-01T09:25:10.101Z,6.97
2018-12-01T09:30:12.941Z,6.07
2018-12-01T09:35:10.444Z,6.90
2018-12-01T09:40:10.457Z,6.83
2018-12-01T09:45:10.897Z,5.50
2018-12-01T09:50:10.409Z,5.00
2018-12-01T09:55:09.184Z,4.47
2018-12-01T10:00:10.670Z,4.97
2018-12-01T10:05:09.686Z,5.13
2018-12-01T10:10:08.873Z,5.20
2018-12-01T10:15:08.597Z,3.77
2018-12-01T10:20:09.044Z,3.60
2018-12-01T10:25:09.421Z,4.57
2018-12-01T10:30:15.008Z,3.63
2018-12-01T10:35:14.545Z,3.57
2018-12-01T10:40:12.406Z,4.10
2018-12-01T10:45:15.195Z,3.60
2018-12-01T10:50:13.551Z,3.90
2018-12-01T10:55:20.670Z,4.30
2018-12-01T11:00:24.704Z,2.90
2018-12-01T11:05:22.213Z,3.80
2018-12-01T11:10:19.730Z,3.57
2018-12-01T11:15:17.240Z,2.40
2018-12-01T11:20:14.690Z,3.00
2018-12-01T11:25:13.156Z,3.77
2018-12-01T11:30:15.763Z,3.67
2018-12-01T11:35:13.338Z,4.00
2018-12-01T11:40:13.062Z,3.60
2018-12-01T11:45:11.605Z,4.20
2018-12-01T11:50:17.083Z,3.50
2018-12-01T11:55:15.756Z,4.27
2018-12-01T12:00:15.108Z,4.53
2018-12-01T12:05:13.700Z,5.33
2018-12-01T12:10:11.172Z,3.03
2018-12-01T12:15:09.641Z,4.50
2018-12-01T12:20:08.830Z,3.97
2018-12-01T12:25:09.623Z,4.27
2018-12-01T12:30:11.463Z,3.90
2018-12-01T12:35:10.222Z,3.60
2018-12-01T12:40:11.950Z,3.53
2018-12-01T12:45:10.584Z,2.90
2018-12-01T12:50:11.997Z,3.60
2018-12-01T12:55:12.449Z,3.93
2018-12-01T13:00:15.828Z,3.20
2018-12-01T13:05:14.831Z,4.10
2018-12-01T13:10:20.181Z,4.20
2018-12-01T13:15:17.641Z,4.00
2018-12-01T13:20:21.143Z,4.10
2018-12-01T13:25:18.566Z,4.30
2018-12-01T13:30:18.751Z,5.40
2018-12-01T13:35:16.315Z,3.70
2018-12-01T13:40:14.722Z,4.60
2018-12-01T13:45:14.985Z,4.40
2018-12-01T13:50:15.488Z,3.50
2018-12-01T13:55:12.961Z,3.90
2018-12-01T14:00:13.000Z,3.30
2018-12-01T14:05:11.218Z,3.00
2018-12-01T14:10:12.679Z,2.83
2018-12-01T14:15:13.334Z,3.57
2018-12-01T14:20:13.773Z,2.80
2018-12-01T14:25:11.981Z,3.20
2018-12-01T14:30:11.888Z,3.40
2018-12-01T14:35:12.568Z,3.30
2018-12-01T14:40:11.168Z,3.10
2018-12-01T14:45:10.259Z,2.90
2018-12-01T14:50:09.118Z,3.33
2018-12-01T14:55:10.042Z,4.10
2018-12-01T15:00:14.095Z,3.00
2018-12-01T15:05:11.658Z,2.60
2018-12-01T15:10:18.050Z,3.17
2018-12-01T15:15:17.683Z,3.73
2018-12-01T15:20:19.209Z,3.13
2018-12-01T15:25:18.718Z,3.40
2018-12-01T15:30:23.112Z,4.10
2018-12-01T15:35:20.828Z,4.07
2018-12-01T15:40:18.801Z,3.80
2018-12-01T15:45:17.341Z,4.17
2018-12-01T15:50:18.804Z,4.17
2018-12-01T15:55:16.308Z,4.57
2018-12-01T16:00:16.263Z,4.00
2018-12-01T16:05:14.731Z,4.10
2018-12-01T16:10:14.382Z,4.83
2018-12-01T16:15:15.318Z,4.30
2018-12-01T16:20:13.890Z,5.40
2018-12-01T16:25:19.418Z,4.60
2018-12-01T16:30:20.660Z,3.13
2018-12-01T16:35:18.241Z,4.40
2018-12-01T16:40:18.531Z,4.27
2018-12-01T16:45:16.180Z,4.13
2018-12-01T16:50:14.710Z,4.00
2018-12-01T16:55:13.441Z,4.03
2018-12-01T17:00:16.663Z,3.67
2018-12-01T17:05:16.303Z,3.43
2018-12-01T17:10:21.079Z,3.90
2018-12-01T17:15:20.307Z,4.23
2018-12-01T17:20:18.531Z,3.40
2018-12-01T17:25:16.385Z,3.80
2018-12-01T17:30:17.568Z,4.00
2018-12-01T17:35:16.336Z,3.83
2018-12-01T17:40:17.424Z,3.77
2018-12-01T17:45:14.999Z,3.30
2018-12-01T17:50:13.652Z,2.90
2018-12-01T17:55:12.723Z,3.40
2018-12-01T18:00:20.562Z,3.27
2018-12-01T18:05:22.762Z,3.23
2018-12-01T18:10:20.244Z,3.00
2018-12-01T18:15:18.586Z,3.00
2018-12-01T18:20:20.888Z,3.13
2018-12-01T18:25:18.350Z,2.90
2018-12-01T18:30:20.569Z,2.50
2018-12-01T18:35:18.021Z,3.30
2018-12-01T18:40:20.117Z,3.10
2018-12-01T18:45:18.865Z,2.63
2018-12-01T18:50:18.191Z,3.23
2018-12-01T18:55:15.646Z,3.10
2018-12-01T19:00:15.338Z,2.77
2018-12-01T19:05:12.893Z,3.23
2018-12-01T19:10:11.666Z,2.70
2018-12-01T19:15:11.310Z,2.73
2018-12-01T19:20:11.057Z,2.40
2018-12-01T19:25:11.765Z,2.10
2018-12-01T19:30:14.782Z,2.47
2018-12-01T19:35:15.523Z,3.17
2018-12-01T19:40:19.377Z,2.50
2018-12-01T19:45:23.675Z,2.53
2018-12-01T19:50:36.478Z,2.10
2018-12-01T19:55:41.221Z,2.47
2018-12-01T20:00:52.123Z,1.97
2018-12-01T20:05:52.260Z,2.37
2018-12-01T20:10:53.450Z,1.93
2018-12-01T20:16:00.288Z,2.03
2018-12-01T20:20:57.893Z,2.10
2018-12-01T20:25:55.296Z,3.60
2018-12-01T20:30:52.813Z,2.17
2018-12-01T20:35:54.450Z,1.93
2018-12-01T20:40:57.476Z,2.20
2018-12-01T20:45:49.690Z,2.50
2018-12-01T20:50:47.126Z,2.00
2018-12-01T20:55:49.283Z,1.90
2018-12-01T21:00:46.783Z,1.70
2018-12-01T21:05:47.652Z,1.80
2018-12-01T21:10:51.082Z,1.80
2018-12-01T21:15:49.163Z,1.77
2018-12-01T21:20:46.693Z,1.30
2018-12-01T21:25:44.254Z,1.47
2018-12-01T21:30:42.214Z,1.50
2018-12-01T21:35:39.851Z,1.27
2018-12-01T21:40:37.410Z,1.20
2018-12-01T21:45:34.841Z,1.33
2018-12-01T21:50:32.286Z,1.57
2018-12-01T21:55:31.902Z,1.10
2018-12-01T22:00:30.454Z,1.30
2018-12-01T22:05:34.503Z,1.37
2018-12-01T22:10:31.984Z,1.13
2018-12-01T22:15:29.413Z,1.70
2018-12-01T22:20:27.092Z,1.63
2018-12-01T22:25:24.605Z,1.83
2018-12-01T22:30:25.179Z,2.07
2018-12-01T22:35:23.784Z,1.90
2018-12-01T22:40:22.781Z,1.37
2018-12-01T22:45:20.281Z,1.23
2018-12-01T22:50:18.923Z,2.27
2018-12-01T22:55:18.657Z,1.57
2018-12-01T23:00:18.962Z,1.90
2018-12-01T23:05:17.054Z,1.50
2018-12-01T23:10:15.957Z,1.60
2018-12-01T23:15:15.361Z,1.77
2018-12-01T23:20:22.906Z,1.83
2018-12-01T23:25:22.496Z,1.40
2018-12-01T23:30:30.205Z,1.37
2018-12-01T23:35:28.629Z,1.37
2018-12-01T23:40:26.042Z,0.97
2018-12-01T23:45:23.645Z,1.20
2018-12-01T23:50:23.011Z,1.60
2018-12-01T23:55:20.453Z,1.20
